This is the latest recevied weather packets stored in our database for station/object EA4URC-13. If no packets are shown the sender has not sent any weather packets the latest 1 day(s).
| Time | Temp. | Humidity | Pressure | Rain* | Wind** | Luminosity | Snow |
|---|---|---|---|---|---|---|---|
| 1778078675 | 17.78° C | 29% | 999.7 hPa | - | - | - | - |
| 1778077782 | 19.44° C | 29% | 999 hPa | - | - | - | - |
| 1778073275 | 19.44° C | 29% | 999.7 hPa | - | - | - | - |
| 1778072353 | 18.33° C | 30% | 1000.3 hPa | - | - | - | - |
| 1778071453 | 17.78° C | 31% | 1000.8 hPa | - | - | - | - |
| 1778070553 | 18.33° C | 31% | 1000.6 hPa | - | - | - | - |
| 1778069653 | 17.22° C | 32% | 1001.3 hPa | - | - | - | - |
| 1778068753 | 17.78° C | 30% | 1001 hPa | - | - | - | - |
| 1778067853 | 17.78° C | 32% | 1001.2 hPa | - | - | - | - |
| 1778066953 | 16.67° C | 32% | 1001.9 hPa | - | - | - | - |
| 1778065153 | 17.78° C | 32% | 1001.5 hPa | - | - | - | - |
| 1778061540 | 16.11° C | 35% | 1002.4 hPa | - | - | - | - |
| 1778060620 | 13.89° C | 38% | 1003.3 hPa | - | - | - | - |
| 1778058820 | 15° C | 36% | 1002.8 hPa | - | - | - | - |
| 1778057920 | 16.11° C | 34% | 1002.2 hPa | - | - | - | - |
| 1778057017 | 15° C | 34% | 1002.7 hPa | - | - | - | - |
| 1778056117 | 15° C | 38% | 1002.7 hPa | - | - | - | - |
| 1778055217 | 14.44° C | 38% | 1003.1 hPa | - | - | - | - |
| 1778054317 | 13.89° C | 41% | 1003.2 hPa | - | - | - | - |
| 1778053417 | 12.22° C | 45% | 1004 hPa | - | - | - | - |
| 1778052517 | 12.22° C | 43% | 1003.9 hPa | - | - | - | - |
| 1778051617 | 12.22° C | 42% | 1003.9 hPa | - | - | - | - |
| 1778050697 | 12.22° C | 44% | 1004 hPa | - | - | - | - |
| 1778049797 | 11.11° C | 44% | 1004.5 hPa | - | - | - | - |
| 1778048894 | 10.56° C | 46% | 1004.7 hPa | - | - | - | - |
* Rain since midnight (hover to see other rain measurements)
** Current wind speed in m/s (hover to see current wind gust speed)